Terminal Aerodrome Forecast
Issued by NWS

Home | Current Version | Previous Version | Graphics & Text | Print | Product List | Glossary On
Versions: 1 2 3 4 5 6 7 8 9 10 11 12 13 14 15
000
FTUS43 KBIS 271729
TAFJMS
TAF
KJMS 271729Z 2718/2818 13006KT P6SM FEW030 BKN250
     FM272200 15006KT P6SM SCT040 BKN250
     FM280600 17005KT P6SM SKC
     FM281500 21007KT P6SM SKC=

USA.gov is the U.S. government's official web portal to all federal, state and local government web resources and services.